Sarcobatus Flat, Nevada Weather observations

Data are for observation ending at time listed.
 Day   Time    Ave.   Ave.  Ave.  Vector   Max.   Stn.    Total    Solar   Ave.  
  of    of     Air    Rel.  Wind   Wind    Wind   Baro.  Precip.   Rad.    Soil  
Year   Day     Temp.  Hum.  Speed  Dir.    Gust   Pres.                    Temp. 
2014   (PST)    F      %     mph   deg.    mph     mb.     in.     W/m2     F   
------------------------------------------------------------------------------
 211   20:30   74.3    44    3.0   331      5.0   882.7    0.00       0    999.0
 211   20:40   73.2    46    2.3   350      3.8   882.7    0.00       0    999.0
 211   20:50   72.3    48    5.2   338      8.0   882.7    0.00       0    999.0
 211   21:00   74.3    43    8.4   332     10.9   882.7    0.00       0    999.0
 211   21:10   74.9    42    7.6   329     11.2   882.6    0.00       0    999.0
 211   21:20   74.2    43    7.4   318      9.3   882.5    0.00       0    999.0
 211   21:30   73.2    44    6.5   320      8.2   882.4    0.00       0    999.0
 211   21:40   73.0    47    7.7   340     10.7   882.5    0.00       0    999.0
 211   21:50   73.1    49    5.6   357      9.1   882.5    0.00       0    999.0
 211   22:00   73.3    48    5.8   357      8.1   882.5    0.00       0    999.0
 211   22:10   72.8    48    6.3   330      7.6   882.4    0.00       0    999.0
 211   22:20   71.5    51    6.7   310      8.6   882.5    0.00       0    999.0
 211   22:30   69.4    54    6.5   314      7.7   882.4    0.00       0    999.0
 211   22:40   69.5    54    6.5   324      7.7   882.3    0.00       0    999.0
 211   22:50   68.9    55    7.3   324      8.7   882.3    0.00       0    999.0
 211   23:00   68.9    55    6.4   336      8.0   882.3    0.00       0    999.0
 211   23:10   68.6    56    5.3   346      6.7   882.4    0.00       0    999.0
 211   23:20   67.8    58    3.8   342      4.9   882.3    0.00       0    999.0
 211   23:30   67.6    58    4.4   352      5.9   882.3    0.00       0    999.0
 211   23:40   69.0    54    3.6     5      5.5   882.3    0.00       0    999.0
 211   23:50   69.9    51    2.8    23      4.4   882.3    0.00       0    999.0
 212    0:00   68.5    54    2.1     8      2.7   882.3    0.00       0    999.0
 212    0:10   67.1    58    4.4   336      6.9   882.2    0.00       0    999.0
 212    0:20   68.2    55    5.5   328      8.0   882.1    0.00       0    999.0
 212    0:30   67.8    57    5.7   319      7.7   882.1    0.00       0    999.0
 212    0:40   67.1    58    5.1   329      7.1   882.1    0.00       0    999.0
 212    0:50   67.2    58    7.0   332      8.8   882.2    0.00       0    999.0
 212    1:00   68.3    55    6.0   353      8.3   882.2    0.00       0    999.0
 212    1:10   68.7    54    4.4    11      7.3   882.2    0.00       0    999.0
 212    1:20   68.1    56    2.9   322      6.0   882.3    0.00       0    999.0
 212    1:30   67.1    58    3.9   308      5.8   882.2    0.00       0    999.0
 212    1:40   66.4    60    6.1   310      8.8   882.1    0.00       0    999.0
 212    1:50   67.1    58    7.6   338      9.6   882.1    0.00       0    999.0
 212    2:00   66.4    59    4.6   360      7.3   882.2    0.00       0    999.0
 212    2:10   66.3    59    3.9   359      5.5   882.2    0.00       0    999.0
 212    2:20   66.8    58    5.0   339      6.1   882.1    0.00       0    999.0
 212    2:30   66.7    58    5.1   332      7.3   881.9    0.00       0    999.0
 212    2:40   66.3    60    7.1   328      9.1   881.8    0.00       0    999.0
 212    2:50   65.9    60    7.1   338      9.3   881.7    0.00       0    999.0
 212    3:00   65.7    61    6.8   333      8.8   881.7    0.00       0    999.0
 212    3:10   65.3    62    6.6   334      8.6   881.7    0.00       0    999.0
 212    3:20   65.0    63    6.6   335      8.1   881.6    0.00       0    999.0
 212    3:30   64.6    63    4.4   340      7.2   881.6    0.00       0    999.0
 212    3:40   64.1    64    1.2    12      4.4   881.7    0.00       0    999.0
 212    3:50   63.1    67    0.6    70      2.6   881.7    0.00       0    999.0
 212    4:00   62.1    69    0.1    26      0.7   881.7    0.00       0    999.0
 212    4:10   61.8    69    2.0   332      4.7   881.9    0.00       0    999.0
 212    4:20   61.9    69    1.1   327      2.6   882.1    0.00       0    999.0
 212    4:30   61.8    71    2.4   185      4.6   882.1    0.00       0    999.0
 212    4:40   61.8    71    0.3   173      1.2   882.1    0.00       0    999.0
 212    4:50   61.0    72    0.6   150      3.0   882.1    0.00       1    999.0
 212    5:00   59.7    75    2.9   137      3.9   882.3    0.00       3    999.0
 212    5:10   59.4    76    2.2   134      3.7   882.3    0.00       7    999.0
 212    5:20   59.1    75    1.8   134      2.6   882.2    0.00      15    999.0
 212    5:30   58.9    77    2.8   130      3.5   882.2    0.00      27    999.0
 212    5:40   59.1    76    3.0   133      4.4   882.2    0.00      37    999.0
 212    5:50   60.7    74    0.6   148      2.6   882.2    0.00     104    999.0
 212    6:00   63.0    69    0.2   151      1.3   882.2    0.00     138    999.0
 212    6:10   65.2    64    0.0   151      0.6   882.2    0.00     187    999.0
 212    6:20   67.0    60    0.5   141      1.7   882.2    0.00     216    999.0
 212    6:30   68.3    58    0.8   127      2.2   882.2    0.00     241    999.0
 212    6:40   69.9    55    0.1   127      1.5   882.1    0.00     273    999.0
 212    6:50   72.6    50    0.4   128      1.8   882.0    0.00     305    999.0
 212    7:00   73.6    48    0.4   132      1.2   882.0    0.00     347    999.0
 212    7:10   73.7    48    3.2   138      5.6   882.1    0.00     348    999.0
 212    7:20   76.4    42    0.4   224      2.6   882.1    0.00     389    999.0
 212    7:30   79.2    36    1.0   272      4.1   882.0    0.00     451    999.0
 212    7:40   79.5    33    4.6   293      7.8   881.9    0.00     482    999.0
 212    7:50   79.9    32    3.5   328      5.8   881.9    0.00     517    999.0
 212    8:00   81.2    31    2.3   338      4.4   881.8    0.00     556    999.0
 212    8:10   82.6    30    1.0    21      4.0   881.8    0.00     583    999.0
 212    8:20   82.8    31    1.5   100      3.7   881.7    0.00     611    999.0
 212    8:30   83.4    30    2.7   146      6.2   881.6    0.00     640    999.0
 212    8:40   83.5    30    3.8    55      5.6   881.4    0.00     668    999.0
 212    8:50   84.3    28    3.0   290      7.0   881.4    0.00     699    999.0
 212    9:00   85.3    26    1.5   345      6.0   881.3    0.00     721    999.0
 212    9:10   86.1    24    3.9     8     12.1   881.2    0.00     742    999.0
 212    9:20   86.8    24    3.6    52      7.0   881.2    0.00     761    999.0
 212    9:30   87.7    23    2.0    76      8.0   881.1    0.00     785    999.0
 212    9:40   87.6    21    4.9    41     11.1   881.1    0.00     819    999.0
 212    9:50   87.7    21    2.9   346     11.4   881.0    0.00     850    999.0
 212   10:00   88.3    21    3.8    85     10.1   881.0    0.00     869    999.0
 212   10:10   88.5    20    4.0   355     12.1   881.0    0.00     885    999.0
 212   10:20   88.5    20    4.0   328     12.1   881.0    0.00     903    999.0
 212   10:30   89.5    20    3.6   210      7.3   880.8    0.00     923    999.0
 212   10:40   90.5    20    4.6    96     10.5   880.7    0.00     935    999.0
 212   10:50   90.0    20    4.2    27     10.1   880.7    0.00     953    999.0
 212   11:00   90.4    19    3.0    93      6.1   880.6    0.00     962    999.0
 212   11:10   89.5    20    5.2   145      8.6   880.5    0.00     965    999.0
 212   11:20   90.9    19    4.0    77      9.9   880.3    0.00     977    999.0
 212   11:30   90.9    19    4.2    69      8.5   880.2    0.00     978    999.0
 212   11:40   91.7    19    4.9    63     10.8   880.1    0.00     986    999.0
 212   11:50   91.9    19    5.9    72     13.3   880.0    0.00     990    999.0
 212   12:00   92.4    18    4.5    56     10.5   879.8    0.00     988    999.0
 212   12:10   91.7    18    5.1    83     10.7   879.7    0.00     991    999.0
 212   12:20   91.1    19    6.2    99     10.5   879.6    0.00     983    999.0
 212   12:30   91.6    18    2.9   118      7.1   879.4    0.00     988    999.0
 212   12:40   92.3    18    2.3   169      5.8   879.4    0.00     962    999.0
 212   12:50   92.2    18    3.4   206      8.6   879.2    0.00     850    999.0
 212   13:00   93.5    16    7.4   310     16.6   879.1    0.00     970    999.0
 212   13:10   93.4    16    6.4   313     16.1   879.0    0.00     977    999.0
 212   13:20   94.5    16    3.8   240      9.3   878.9    0.00     966    999.0
 212   13:30   94.2    15    7.6   150     13.5   878.7    0.00     942    999.0
 212   13:40   93.9    15    4.4    28     11.2   878.5    0.00     908    999.0
 212   13:50   94.4    15    5.0    90      8.3   878.5    0.00     918    999.0
 212   14:00   94.1    15    3.0     8      9.2   878.4    0.00     741    999.0
 212   14:10   95.1    14    2.6   136      6.3   878.2    0.00     805    999.0
 212   14:20   94.8    14    4.1   359     11.4   878.1    0.00     203    999.0
 212   14:30   94.3    14    5.9   354     11.5   878.0    0.00     636    999.0
 212   14:40   94.7    14    6.0   299     11.2   877.9    0.00     675    999.0
 212   14:50   94.3    14    5.2   320     14.0   877.8    0.00     529    999.0
 212   15:00   95.2    14    5.5   302     13.5   877.6    0.00     756    999.0
 212   15:10   95.6    14    6.4   316     12.8   877.5    0.00     726    999.0
 212   15:20   96.4    14    6.8   226     15.6   877.4    0.00     692    999.0
 212   15:30   96.0    14    6.7   200     12.0   877.3    0.00     665    999.0
 212   15:40   96.8    14    8.5   239     13.2   877.3    0.00     632    999.0
 212   15:50   96.7    14    6.5   240     13.7   877.2    0.00     600    999.0
 212   16:00   96.4    14    8.6   239     14.8   877.2    0.00     582    999.0
 212   16:10   96.1    14    8.1   232     13.3   877.2    0.00     549    999.0
 212   16:20   96.1    14   10.3   258     16.0   877.1    0.00     513    999.0
 212   16:30   95.3    14   11.5   256     17.6   877.1    0.00     284    999.0
 212   16:40   94.2    15    9.3   240     14.2   877.0    0.00     128    999.0
 212   16:50   93.7    15   10.0   252     14.7   877.0    0.00     114    999.0
 212   17:00   93.8    16    9.1   242     14.3   877.0    0.00     135    999.0
 212   17:10   94.0    16    7.6   246     11.0   877.0    0.00     236    999.0
 212   17:20   94.4    15    8.6   263     11.4   877.0    0.00     262    999.0
 212   17:30   94.3    16    7.8   258     15.0   877.0    0.00     162    999.0
 212   17:40   93.5    16    6.3   235     12.2   877.1    0.00     110    999.0
 212   17:50   93.4    15   10.3   233     15.3   877.1    0.00      90    999.0
 212   18:00   93.0    15   11.7   249     15.4   877.1    0.00      73    999.0
 212   18:10   92.6    15   11.1   242     14.3   877.2    0.00      56    999.0
 212   18:20   92.1    16   10.8   245     15.3   877.2    0.00      41    999.0
 212   18:30   91.6    16    9.3   243     14.0   877.3    0.00      29    999.0
 212   18:40   91.1    17    8.5   241     11.5   877.4    0.00      18    999.0
 212   18:50   90.6    17    9.8   242     13.2   877.5    0.00       9    999.0
 212   19:00   89.9    18    7.5   237     11.1   877.6    0.00       3    999.0
 212   19:10   89.1    19    8.2   243     10.3   877.6    0.00       1    999.0
 212   19:20   88.5    19    7.3   244      9.7   877.6    0.00       0    999.0
 212   19:30   87.8    20    6.3   245      8.3   877.7    0.00       0    999.0
 212   19:40   87.1    20    6.1   249      8.5   877.8    0.00       0    999.0
 212   19:50   86.2    21    5.2   260      7.8   877.9    0.00       0    999.0
 212   20:00   85.6    22    3.8   275      5.5   878.0    0.00       0    999.0
 212   20:10   84.5    23    2.9   303      5.1   878.2    0.00       0    999.0
 212   20:20   83.3    24    2.9    30      5.4   878.4    0.00       0    999.0

Return to Sarcobatus Flat, Nevada graphs page.


Western Regional Climate Center,wrcc@dri.edu